Time;durP1;ratioP1;P1;durP2;ratioP2;P2;SDS_P1;SDS_P2;PMS_P1;PMS_P2;Temp;Humidity;BMP_temperature;BMP_pressure;BME280_temperature;BME280_humidity;BME280_pressure;Samples;Min_cycle;Max_cycle;Signal;HPM_P1;HPM_P2
2022/12/11 00:02:04;;;;;;;35.38;13.65;;;0.30;99.90;;;;;;5099851;28;20028;-68
2022/12/11 00:04:30;;;;;;;37.92;15.32;;;0.20;99.90;;;;;;5101312;28;20050;-68
2022/12/11 00:06:56;;;;;;;36.03;15.50;;;0.20;99.90;;;;;;5100875;28;20032;-67
2022/12/11 00:09:21;;;;;;;36.83;15.48;;;0.20;99.90;;;;;;5100493;28;20032;-68
2022/12/11 00:11:48;;;;;;;34.13;14.55;;;0.20;99.90;;;;;;5101041;28;20040;-68
2022/12/11 00:14:14;;;;;;;32.45;14.52;;;0.20;99.90;;;;;;5101132;28;20551;-69
2022/12/11 00:16:40;;;;;;;33.92;14.00;;;0.30;99.90;;;;;;5099963;28;20100;-68
2022/12/11 00:19:06;;;;;;;33.72;13.85;;;0.20;99.90;;;;;;5100630;28;20059;-68
2022/12/11 00:21:32;;;;;;;37.50;14.52;;;0.20;99.90;;;;;;5102064;28;20023;-67
2022/12/11 00:23:57;;;;;;;41.38;16.10;;;0.20;99.90;;;;;;5101211;28;20159;-68
2022/12/11 00:26:23;;;;;;;35.42;14.02;;;0.20;99.90;;;;;;5101646;28;20020;-68
2022/12/11 00:28:55;;;;;;;38.95;15.38;;;0.10;99.90;;;;;;5101774;28;20115;-69
2022/12/11 00:31:22;;;;;;;37.33;15.38;;;0.10;99.90;;;;;;5101087;28;20012;-67
2022/12/11 00:33:49;;;;;;;37.63;15.23;;;0.10;99.90;;;;;;5101748;28;20020;-69
2022/12/11 00:36:18;;;;;;;38.05;14.38;;;0.10;99.90;;;;;;5101341;28;20035;-67
2022/12/11 00:38:44;;;;;;;35.97;15.02;;;0.10;99.90;;;;;;5101152;28;20597;-70
2022/12/11 00:41:11;;;;;;;37.50;15.73;;;0.10;99.90;;;;;;5102013;28;20028;-70
2022/12/11 00:43:36;;;;;;;37.28;15.75;;;0.10;99.90;;;;;;5100946;28;20024;-69
2022/12/11 00:46:03;;;;;;;37.30;15.20;;;0.10;99.90;;;;;;5100414;28;20046;-68
2022/12/11 00:48:29;;;;;;;37.65;15.40;;;0.10;99.90;;;;;;5100259;28;20028;-68
2022/12/11 00:50:54;;;;;;;37.08;16.27;;;0.10;99.90;;;;;;5100557;28;20085;-68
2022/12/11 00:53:20;;;;;;;37.63;14.93;;;0.10;99.90;;;;;;5100564;28;20023;-69
2022/12/11 00:55:46;;;;;;;34.58;15.32;;;0.20;99.90;;;;;;5101796;28;20027;-70
2022/12/11 00:58:13;;;;;;;32.25;15.27;;;0.20;99.90;;;;;;5099897;28;20042;-71
2022/12/11 01:00:39;;;;;;;39.03;16.00;;;0.20;99.90;;;;;;5101343;28;20443;-68
2022/12/11 01:03:05;;;;;;;35.38;15.25;;;0.20;99.90;;;;;;5101442;28;20115;-69
2022/12/11 01:05:31;;;;;;;38.50;16.13;;;0.30;99.90;;;;;;5101037;28;20051;-68
2022/12/11 01:07:56;;;;;;;33.13;15.32;;;0.20;99.90;;;;;;5101313;28;20027;-69
2022/12/11 01:10:24;;;;;;;34.30;15.07;;;0.20;99.90;;;;;;5100247;28;20020;-68
2022/12/11 01:12:59;;;;;;;35.00;15.23;;;0.20;99.90;;;;;;5100506;28;20028;-69
2022/12/11 01:15:41;;;;;;;37.85;15.13;;;0.30;99.90;;;;;;5101182;28;20059;-70
2022/12/11 01:18:08;;;;;;;42.65;15.43;;;0.20;99.90;;;;;;5101548;28;20020;-69
2022/12/11 01:20:39;;;;;;;32.42;14.80;;;0.30;99.90;;;;;;5101030;28;20350;-69
2022/12/11 01:23:05;;;;;;;38.17;14.98;;;0.20;99.90;;;;;;5099988;28;20056;-69
2022/12/11 01:25:33;;;;;;;36.80;14.15;;;0.20;99.90;;;;;;5101011;28;20039;-69
2022/12/11 01:27:59;;;;;;;34.88;14.18;;;0.20;99.90;;;;;;5100561;28;20046;-68
2022/12/11 01:30:25;;;;;;;34.40;15.13;;;0.20;99.90;;;;;;5100985;28;20016;-69
2022/12/11 01:32:51;;;;;;;32.53;14.60;;;0.30;99.90;;;;;;5100900;28;20028;-69
2022/12/11 01:35:18;;;;;;;37.25;14.13;;;0.30;99.90;;;;;;5100663;28;20046;-68
2022/12/11 01:37:44;;;;;;;33.33;14.98;;;0.20;99.90;;;;;;5101131;28;20123;-71
2022/12/11 01:40:13;;;;;;;34.78;15.25;;;0.30;99.90;;;;;;5100273;28;20024;-70
2022/12/11 01:42:39;;;;;;;32.88;14.73;;;0.30;99.90;;;;;;5099668;28;20397;-69
2022/12/11 01:45:25;;;;;;;33.67;13.82;;;0.20;99.90;;;;;;5098618;28;20032;-68
2022/12/11 01:48:10;;;;;;;35.08;13.68;;;0.20;99.90;;;;;;5099980;28;20028;-70
2022/12/11 01:50:41;;;;;;;35.05;15.00;;;0.20;99.90;;;;;;5100122;28;20023;-69
2022/12/11 01:53:11;;;;;;;34.10;14.73;;;0.10;99.90;;;;;;5100547;28;20024;-69
2022/12/11 01:55:38;;;;;;;38.40;16.33;;;0.10;99.90;;;;;;5100413;28;20020;-69
2022/12/11 01:58:05;;;;;;;32.17;13.52;;;0.10;99.90;;;;;;5101284;28;20074;-69
2022/12/11 02:00:30;;;;;;;40.60;15.80;;;0.00;99.90;;;;;;5100702;28;20051;-69
2022/12/11 02:02:56;;;;;;;38.72;14.27;;;0.00;99.90;;;;;;5100401;28;20077;-69
2022/12/11 02:05:21;;;;;;;36.78;15.73;;;0.00;99.90;;;;;;5100773;28;20772;-68
2022/12/11 02:07:52;;;;;;;38.97;14.43;;;0.00;99.90;;;;;;5100340;28;20028;-71
2022/12/11 02:10:18;;;;;;;37.38;16.00;;;0.00;99.90;;;;;;5100296;28;20055;-69
2022/12/11 02:12:58;;;;;;;39.95;16.05;;;0.00;99.90;;;;;;5100759;28;20114;-69
2022/12/11 02:15:53;;;;;;;36.88;15.20;;;0.00;99.90;;;;;;5100005;28;20028;-68
2022/12/11 02:18:25;;;;;;;43.10;15.75;;;0.00;99.90;;;;;;5096633;28;20036;-69
2022/12/11 02:21:17;;;;;;;38.45;16.42;;;0.00;99.90;;;;;;5100562;28;20024;-67
2022/12/11 02:24:01;;;;;;;35.58;15.85;;;0.00;99.90;;;;;;5102037;28;20117;-70
2022/12/11 02:26:35;;;;;;;;;;;0.00;99.90;;;;;;5105062;28;20044;-68
2022/12/11 02:29:04;;;;;;;37.10;16.63;;;-0.10;99.90;;;;;;5104153;28;19961;-68
2022/12/11 02:31:49;;;;;;;33.72;14.70;;;0.00;99.90;;;;;;5103394;28;20115;-67
2022/12/11 02:34:25;;;;;;;44.67;16.50;;;0.00;99.90;;;;;;5104347;28;20479;-68
2022/12/11 02:37:00;;;;;;;36.72;15.93;;;0.00;99.90;;;;;;5103903;28;20149;-68
2022/12/11 02:39:28;;;;;;;41.28;16.30;;;-0.10;99.90;;;;;;5103886;28;20333;-67
2022/12/11 02:41:54;;;;;;;39.00;17.00;;;0.00;99.90;;;;;;5103856;28;20043;-67
2022/12/11 02:44:29;;;;;;;36.25;13.57;;;0.00;99.90;;;;;;5103794;28;20028;-69
2022/12/11 02:46:57;;;;;;;37.05;16.02;;;0.00;99.90;;;;;;5104006;28;20026;-68
2022/12/11 02:49:24;;;;;;;33.55;14.13;;;0.00;99.90;;;;;;5102230;28;20020;-67
2022/12/11 02:51:53;;;;;;;37.85;16.00;;;0.00;99.90;;;;;;5103058;28;20019;-67
2022/12/11 02:54:27;;;;;;;38.60;15.52;;;0.00;99.90;;;;;;5103145;28;20560;-67
2022/12/11 02:57:13;;;;;;;35.30;15.65;;;0.00;99.90;;;;;;5103279;28;20032;-67
2022/12/11 02:59:44;;;;;;;41.70;15.38;;;0.00;99.90;;;;;;5103839;28;20376;-68
2022/12/11 03:02:14;;;;;;;41.58;16.33;;;-0.10;99.90;;;;;;5103743;28;20486;-68
2022/12/11 03:04:43;;;;;;;33.85;14.82;;;-0.10;99.90;;;;;;5103280;28;20612;-67
2022/12/11 03:07:17;;;;;;;38.97;16.05;;;-0.10;99.90;;;;;;5103832;28;20027;-67
2022/12/11 03:09:46;;;;;;;42.20;17.17;;;-0.10;99.90;;;;;;5103546;28;20426;-67
2022/12/11 03:12:19;;;;;;;34.00;14.57;;;-0.10;99.90;;;;;;5103287;28;20056;-68
2022/12/11 03:14:46;;;;;;;35.72;15.73;;;-0.20;99.90;;;;;;5103190;28;20503;-69
2022/12/11 03:17:21;;;;;;;39.83;15.52;;;-0.20;99.90;;;;;;5103631;28;20055;-68
2022/12/11 03:20:28;;;;;;;36.42;15.63;;;-0.20;99.90;;;;;;5103132;28;20038;-68
2022/12/11 03:23:23;;;;;;;35.33;14.43;;;-0.20;99.90;;;;;;5102024;28;20426;-68
2022/12/11 03:26:00;;;;;;;;;;;-0.20;99.90;;;;;;5100516;28;20127;-68
2022/12/11 03:28:32;;;;;;;40.80;15.98;;;-0.20;99.90;;;;;;5101852;28;19904;-69
2022/12/11 03:31:04;;;;;;;39.65;16.08;;;-0.20;99.90;;;;;;5101369;28;20043;-68
2022/12/11 03:33:46;;;;;;;44.53;17.75;;;-0.20;99.90;;;;;;5100047;28;20049;-68
2022/12/11 03:36:24;;;;;;;41.53;16.83;;;-0.20;99.90;;;;;;5102499;28;20024;-69
2022/12/11 03:38:58;;;;;;;43.25;17.55;;;-0.20;99.90;;;;;;5102123;28;20032;-68
2022/12/11 03:41:26;;;;;;;39.10;16.55;;;-0.10;99.90;;;;;;5102281;28;20108;-68
2022/12/11 03:43:55;;;;;;;47.10;17.50;;;-0.10;99.90;;;;;;5102401;28;20024;-66
2022/12/11 03:46:26;;;;;;;38.22;15.68;;;-0.10;99.90;;;;;;5102292;28;20031;-68
2022/12/11 03:48:55;;;;;;;42.72;16.08;;;-0.10;99.90;;;;;;5102149;28;20075;-68
2022/12/11 03:51:23;;;;;;;38.75;16.50;;;-0.10;99.90;;;;;;5102087;28;20016;-67
2022/12/11 03:53:49;;;;;;;41.78;17.45;;;-0.20;99.90;;;;;;5102622;28;20028;-68
2022/12/11 03:56:18;;;;;;;35.78;15.88;;;-0.20;99.90;;;;;;5102318;28;20027;-69
2022/12/11 03:58:43;;;;;;;36.20;15.77;;;-0.20;99.90;;;;;;5100498;28;20058;-69
2022/12/11 04:01:10;;;;;;;36.50;16.15;;;-0.20;99.90;;;;;;5102253;28;20423;-69
2022/12/11 04:03:37;;;;;;;39.28;16.67;;;-0.10;99.90;;;;;;5101903;28;20048;-70
2022/12/11 04:06:03;;;;;;;40.35;16.65;;;-0.20;99.90;;;;;;5102324;28;20027;-69
2022/12/11 04:08:29;;;;;;;37.40;16.13;;;-0.10;99.90;;;;;;5102318;28;20149;-67
2022/12/11 04:13:40;;;;;;;33.67;16.42;;;-0.10;99.90;;;;;;5102720;28;20051;-67
2022/12/11 04:16:06;;;;;;;40.72;16.58;;;-0.10;99.90;;;;;;5102382;28;20039;-68
2022/12/11 04:24:16;;;;;;;38.53;16.10;;;-0.10;99.90;;;;;;5100594;28;20138;-69
2022/12/11 04:26:46;;;;;;;37.97;16.02;;;-0.10;99.90;;;;;;5101156;28;20447;-69
2022/12/11 04:29:13;;;;;;;41.00;17.25;;;-0.10;99.90;;;;;;5100908;28;20682;-70
2022/12/11 04:31:38;;;;;;;39.08;16.05;;;-0.10;99.90;;;;;;5101400;28;20027;-68
2022/12/11 04:34:04;;;;;;;40.28;16.30;;;-0.10;99.90;;;;;;5101877;28;20027;-68
2022/12/11 04:36:30;;;;;;;43.42;17.42;;;-0.10;99.90;;;;;;5101733;28;20463;-68
2022/12/11 04:38:55;;;;;;;36.13;15.35;;;-0.10;99.90;;;;;;5101038;28;20083;-69
2022/12/11 04:41:21;;;;;;;42.50;16.83;;;-0.10;99.90;;;;;;5101065;28;20024;-68
2022/12/11 04:43:47;;;;;;;39.08;16.75;;;-0.10;99.90;;;;;;5101558;28;20032;-69
2022/12/11 04:46:17;;;;;;;36.33;15.27;;;-0.10;99.90;;;;;;5101180;28;20035;-69
2022/12/11 04:48:43;;;;;;;44.30;16.02;;;-0.10;99.90;;;;;;5101912;28;20122;-70
2022/12/11 04:51:10;;;;;;;40.78;16.42;;;-0.10;99.90;;;;;;5100942;28;20004;-69
2022/12/11 04:53:36;;;;;;;39.05;15.82;;;-0.10;99.90;;;;;;5101734;28;20030;-69
2022/12/11 04:56:06;;;;;;;35.85;14.60;;;-0.10;99.90;;;;;;5100385;28;20035;-69
2022/12/11 04:58:31;;;;;;;36.38;14.45;;;-0.10;99.90;;;;;;5100871;28;20020;-68
2022/12/11 05:00:57;;;;;;;39.67;16.02;;;-0.10;99.90;;;;;;5099832;28;20082;-68
2022/12/11 05:03:22;;;;;;;42.25;16.38;;;-0.20;99.90;;;;;;5100927;28;20044;-69
2022/12/11 05:05:52;;;;;;;36.88;15.23;;;-0.10;99.90;;;;;;5101092;28;20029;-69
2022/12/11 05:08:19;;;;;;;39.13;16.00;;;-0.20;99.90;;;;;;5101179;28;20020;-68
2022/12/11 05:10:55;;;;;;;39.15;16.08;;;-0.20;99.90;;;;;;5101085;28;20052;-71
2022/12/11 05:13:21;;;;;;;37.25;16.02;;;-0.20;99.90;;;;;;5101172;28;20018;-69
2022/12/11 05:15:47;;;;;;;33.78;14.50;;;-0.20;99.90;;;;;;5101523;28;20016;-70
2022/12/11 05:18:13;;;;;;;33.70;14.77;;;-0.20;99.90;;;;;;5100683;28;20081;-70
2022/12/11 05:20:39;;;;;;;36.03;15.00;;;-0.20;99.90;;;;;;5101434;28;20448;-68
2022/12/11 05:23:05;;;;;;;41.88;15.30;;;-0.20;99.90;;;;;;5100439;28;20085;-69
2022/12/11 05:25:30;;;;;;;40.25;15.15;;;-0.10;99.90;;;;;;5100728;28;20068;-68
2022/12/11 05:27:56;;;;;;;34.20;14.82;;;-0.10;99.90;;;;;;5100967;28;20076;-69
2022/12/11 05:30:22;;;;;;;33.28;14.63;;;-0.10;99.90;;;;;;5101026;28;20020;-69
2022/12/11 05:32:47;;;;;;;33.92;13.27;;;-0.20;99.90;;;;;;5100667;28;20031;-69
2022/12/11 05:35:13;;;;;;;36.03;15.30;;;-0.20;99.90;;;;;;5101163;28;20056;-69
2022/12/11 05:37:39;;;;;;;37.65;14.88;;;-0.20;99.90;;;;;;5101303;28;20024;-69
2022/12/11 05:40:06;;;;;;;36.72;15.13;;;-0.30;99.90;;;;;;5099066;28;20395;-69
2022/12/11 05:42:32;;;;;;;37.65;14.48;;;-0.30;99.90;;;;;;5100940;28;20050;-68
2022/12/11 05:44:58;;;;;;;39.22;15.90;;;-0.30;99.90;;;;;;5100743;28;20028;-68
2022/12/11 05:47:24;;;;;;;34.47;13.90;;;-0.30;99.90;;;;;;5100717;28;20128;-68
2022/12/11 05:49:51;;;;;;;40.40;15.90;;;-0.30;99.90;;;;;;5100149;28;20028;-69
2022/12/11 05:52:17;;;;;;;35.50;15.35;;;-0.30;99.90;;;;;;5100568;28;20035;-69
2022/12/11 05:54:44;;;;;;;37.53;15.63;;;-0.30;99.90;;;;;;5100841;28;20138;-69
2022/12/11 05:57:09;;;;;;;36.50;14.82;;;-0.30;99.90;;;;;;5101911;28;20035;-68
2022/12/11 05:59:35;;;;;;;36.15;15.30;;;-0.30;99.90;;;;;;5104484;28;20113;-69
2022/12/11 06:02:01;;;;;;;36.05;15.15;;;-0.30;99.90;;;;;;5103889;28;20142;-69
2022/12/11 06:04:26;;;;;;;37.17;15.02;;;-0.30;99.90;;;;;;5102268;28;20028;-68
2022/12/11 06:06:55;;;;;;;37.42;17.48;;;-0.20;99.90;;;;;;5102383;28;20027;-69
2022/12/11 06:09:20;;;;;;;36.53;14.45;;;-0.30;99.90;;;;;;5103357;28;20167;-69
2022/12/11 06:11:46;;;;;;;33.17;14.10;;;-0.30;99.90;;;;;;5103332;28;20080;-70
2022/12/11 06:14:12;;;;;;;35.53;15.23;;;-0.30;99.90;;;;;;5103196;28;20040;-69
2022/12/11 06:16:38;;;;;;;38.75;15.77;;;-0.40;99.90;;;;;;5102299;28;20427;-68
2022/12/11 06:19:04;;;;;;;46.60;16.73;;;-0.30;99.90;;;;;;5102954;28;20059;-68
2022/12/11 06:21:31;;;;;;;37.97;14.57;;;-0.30;99.90;;;;;;5102608;28;20016;-70
2022/12/11 06:24:00;;;;;;;38.25;14.93;;;-0.40;99.90;;;;;;5102637;28;20044;-69
2022/12/11 06:26:26;;;;;;;35.67;14.48;;;-0.40;99.90;;;;;;5102927;28;20032;-69
2022/12/11 06:28:52;;;;;;;34.88;14.45;;;-0.40;99.90;;;;;;5102488;28;20065;-69
2022/12/11 06:31:19;;;;;;;37.20;14.43;;;-0.30;99.90;;;;;;5103303;28;20484;-69
2022/12/11 06:33:45;;;;;;;32.50;14.40;;;-0.40;99.90;;;;;;5102579;28;20036;-68
2022/12/11 06:36:18;;;;;;;40.90;16.77;;;-0.40;99.90;;;;;;5102817;28;20050;-71
2022/12/11 06:38:46;;;;;;;36.80;14.60;;;-0.40;99.90;;;;;;5102814;28;20508;-69
2022/12/11 06:41:12;;;;;;;29.15;13.23;;;-0.40;99.90;;;;;;5101949;28;20099;-69
2022/12/11 06:43:39;;;;;;;41.33;14.93;;;-0.40;99.90;;;;;;5102660;28;20067;-68
2022/12/11 06:46:06;;;;;;;43.58;16.38;;;-0.40;99.90;;;;;;5101351;28;20040;-68
2022/12/11 06:48:33;;;;;;;38.60;15.18;;;-0.40;99.90;;;;;;5100359;28;20024;-69
2022/12/11 06:50:58;;;;;;;42.58;15.07;;;-0.40;99.90;;;;;;5101914;28;20020;-69
2022/12/11 06:53:24;;;;;;;43.33;16.73;;;-0.40;99.90;;;;;;5101172;28;20081;-69
2022/12/11 06:55:50;;;;;;;40.35;15.38;;;-0.40;99.90;;;;;;5099599;28;20032;-72
2022/12/11 06:58:16;;;;;;;37.83;14.35;;;-0.50;99.90;;;;;;5100943;28;20075;-69
2022/12/11 07:00:41;;;;;;;36.78;15.25;;;-0.40;99.90;;;;;;5101637;28;20107;-69
2022/12/11 07:03:08;;;;;;;30.80;12.88;;;-0.40;99.90;;;;;;5101473;28;20031;-70
2022/12/11 07:05:34;;;;;;;33.67;14.52;;;-0.40;99.90;;;;;;5100989;28;20024;-70
2022/12/11 07:08:00;;;;;;;34.42;14.25;;;-0.40;99.90;;;;;;5100176;28;20047;-70
2022/12/11 07:10:26;;;;;;;40.05;15.18;;;-0.40;99.90;;;;;;5099565;28;20112;-71
2022/12/11 07:12:52;;;;;;;32.58;14.00;;;-0.40;99.90;;;;;;5095878;28;20048;-69
2022/12/11 07:15:18;;;;;;;33.13;12.93;;;-0.40;99.90;;;;;;5101210;28;20054;-70
2022/12/11 07:17:44;;;;;;;32.45;14.43;;;-0.40;99.90;;;;;;5101272;28;20036;-70
2022/12/11 07:20:10;;;;;;;38.33;15.27;;;-0.40;99.90;;;;;;5101384;28;20063;-69
2022/12/11 07:22:36;;;;;;;33.38;14.38;;;-0.40;99.90;;;;;;5099541;28;20325;-71
2022/12/11 07:25:01;;;;;;;34.35;14.93;;;-0.40;99.90;;;;;;5100000;28;20086;-70
2022/12/11 07:27:28;;;;;;;37.45;15.23;;;-0.40;99.90;;;;;;5098773;28;20024;-70
2022/12/11 07:29:54;;;;;;;37.05;16.08;;;-0.40;99.90;;;;;;5099559;28;20047;-69
2022/12/11 07:32:20;;;;;;;39.45;15.13;;;-0.40;99.90;;;;;;5093415;28;20124;-70
2022/12/11 07:34:48;;;;;;;35.78;15.43;;;-0.40;99.90;;;;;;5100149;28;20235;-71
2022/12/11 07:37:13;;;;;;;38.72;16.02;;;-0.40;99.90;;;;;;5098466;28;20028;-70
2022/12/11 07:39:41;;;;;;;47.03;16.40;;;-0.30;99.90;;;;;;5099598;28;20030;-71
2022/12/11 07:42:07;;;;;;;43.75;17.27;;;-0.30;99.90;;;;;;5102050;28;20032;-70
2022/12/11 07:44:32;;;;;;;41.53;16.50;;;-0.30;99.90;;;;;;5100481;28;20039;-71
2022/12/11 07:46:58;;;;;;;33.63;14.70;;;-0.30;99.90;;;;;;5100077;28;20065;-70
2022/12/11 07:49:24;;;;;;;37.35;14.80;;;-0.30;99.90;;;;;;5102101;28;20042;-69
2022/12/11 07:51:49;;;;;;;41.20;15.25;;;-0.20;99.90;;;;;;5100274;28;20036;-69
2022/12/11 07:54:15;;;;;;;39.45;15.88;;;-0.30;99.90;;;;;;5100471;28;20040;-70
2022/12/11 07:56:46;;;;;;;36.88;14.70;;;-0.30;99.90;;;;;;5101759;28;20016;-70
2022/12/11 07:59:12;;;;;;;37.72;15.13;;;-0.30;99.90;;;;;;5100560;28;20048;-70
2022/12/11 08:01:38;;;;;;;41.40;16.98;;;-0.30;99.90;;;;;;5100866;28;20020;-69
2022/12/11 08:04:06;;;;;;;31.70;14.23;;;-0.30;99.90;;;;;;5101078;28;20164;-69
2022/12/11 08:06:35;;;;;;;38.55;16.25;;;-0.30;99.90;;;;;;5099765;28;20024;-69
2022/12/11 08:09:02;;;;;;;36.55;14.95;;;-0.30;99.90;;;;;;5099490;28;20043;-71
2022/12/11 08:11:28;;;;;;;38.03;16.15;;;-0.30;99.90;;;;;;5099073;28;20050;-70
2022/12/11 08:13:55;;;;;;;37.90;15.55;;;-0.40;99.90;;;;;;5097627;28;20095;-70
2022/12/11 08:16:21;;;;;;;40.53;15.80;;;-0.40;99.90;;;;;;5101626;28;20024;-71
2022/12/11 08:18:47;;;;;;;35.25;14.93;;;-0.30;99.90;;;;;;5096417;28;20127;-70
2022/12/11 08:21:25;;;;;;;35.38;15.25;;;-0.30;99.90;;;;;;5097644;28;20478;-71
2022/12/11 08:23:51;;;;;;;38.22;16.10;;;-0.20;99.90;;;;;;5099022;28;20067;-72
2022/12/11 08:26:22;;;;;;;35.90;15.18;;;-0.20;99.90;;;;;;5100031;28;20091;-71
2022/12/11 08:28:48;;;;;;;36.70;14.18;;;-0.20;99.90;;;;;;5100314;28;20052;-70
2022/12/11 08:31:15;;;;;;;35.72;15.63;;;-0.20;99.90;;;;;;5097727;28;20089;-71
2022/12/11 08:33:43;;;;;;;40.72;16.63;;;-0.20;99.90;;;;;;5099999;28;20032;-72
2022/12/11 08:36:11;;;;;;;31.02;13.98;;;-0.20;99.90;;;;;;5099380;28;20040;-70
2022/12/11 08:38:37;;;;;;;37.20;14.80;;;-0.20;99.90;;;;;;5098307;28;20088;-69
2022/12/11 08:41:14;;;;;;;35.78;15.45;;;-0.20;99.90;;;;;;5097652;28;20044;-70
2022/12/11 08:43:41;;;;;;;40.38;16.55;;;-0.20;99.90;;;;;;5100383;28;20047;-72
2022/12/11 08:46:07;;;;;;;37.30;14.95;;;-0.20;99.90;;;;;;5099241;28;20044;-70
2022/12/11 08:48:37;;;;;;;35.75;14.07;;;-0.20;99.90;;;;;;5098684;28;20489;-72
2022/12/11 08:51:05;;;;;;;37.35;15.07;;;-0.20;99.90;;;;;;5098867;28;20043;-70
2022/12/11 08:53:31;;;;;;;35.95;15.27;;;-0.10;99.90;;;;;;5096607;28;20111;-70
2022/12/11 08:56:03;;;;;;;34.95;14.68;;;-0.10;99.90;;;;;;5099167;28;20403;-70
2022/12/11 08:58:29;;;;;;;34.33;14.40;;;-0.10;99.90;;;;;;5097644;28;20055;-70
2022/12/11 09:00:55;;;;;;;38.22;15.02;;;-0.10;99.90;;;;;;5100403;28;20020;-70
2022/12/11 09:03:21;;;;;;;34.10;15.60;;;-0.10;99.90;;;;;;5100653;28;20053;-70
2022/12/11 09:05:47;;;;;;;38.03;15.25;;;-0.10;99.90;;;;;;5098000;28;20040;-70
2022/12/11 09:08:12;;;;;;;37.45;14.95;;;-0.20;99.90;;;;;;5098848;28;20121;-72
2022/12/11 09:10:38;;;;;;;41.42;16.27;;;-0.10;99.90;;;;;;5098545;28;20038;-71
2022/12/11 09:13:04;;;;;;;37.30;14.55;;;-0.20;99.90;;;;;;5099017;28;20126;-70
2022/12/11 09:15:29;;;;;;;34.30;14.52;;;-0.20;99.90;;;;;;5097707;28;20056;-71
2022/12/11 09:17:55;;;;;;;36.67;14.40;;;-0.10;99.90;;;;;;5097918;28;20062;-69
2022/12/11 09:20:20;;;;;;;37.53;15.00;;;-0.10;99.90;;;;;;5100502;28;20058;-70
2022/12/11 09:22:46;;;;;;;37.58;14.70;;;0.00;99.90;;;;;;5099231;28;20062;-70
2022/12/11 09:25:12;;;;;;;37.85;15.32;;;-0.10;99.90;;;;;;5100040;28;20039;-71
2022/12/11 09:27:37;;;;;;;40.05;17.42;;;0.00;99.90;;;;;;5099017;28;20028;-70
2022/12/11 09:30:03;;;;;;;42.70;15.20;;;-0.10;99.90;;;;;;5099668;28;20062;-71
2022/12/11 09:32:29;;;;;;;32.90;13.85;;;0.00;99.90;;;;;;5099273;28;20028;-70
2022/12/11 09:34:55;;;;;;;37.65;15.38;;;-0.10;99.90;;;;;;5097911;28;20078;-70
2022/12/11 09:37:20;;;;;;;34.20;13.63;;;-0.10;99.90;;;;;;5097930;28;20039;-71
2022/12/11 09:39:46;;;;;;;36.67;14.95;;;-0.10;99.90;;;;;;5094112;28;20039;-71
2022/12/11 09:42:41;;;;;;;35.15;14.82;;;0.00;99.90;;;;;;5095100;28;20632;-71
2022/12/11 09:45:13;;;;;;;36.08;13.90;;;-0.10;99.90;;;;;;5100724;28;20556;-69
2022/12/11 09:47:43;;;;;;;34.38;15.00;;;0.00;99.90;;;;;;5099404;28;20028;-70
2022/12/11 09:50:08;;;;;;;37.30;15.25;;;-0.10;99.90;;;;;;5097271;28;20399;-69
2022/12/11 09:52:54;;;;;;;37.95;14.80;;;0.00;99.90;;;;;;5100038;28;20032;-70
2022/12/11 09:55:23;;;;;;;34.15;14.63;;;0.00;99.90;;;;;;5096085;28;20032;-71
2022/12/11 09:58:19;;;;;;;35.53;14.80;;;0.00;99.90;;;;;;5098826;28;20072;-70
2022/12/11 10:01:16;;;;;;;33.78;14.07;;;0.00;99.90;;;;;;5097933;28;20069;-72
2022/12/11 10:04:04;;;;;;;34.50;14.77;;;0.00;99.90;;;;;;5095745;28;20044;-70
2022/12/11 10:06:47;;;;;;;29.67;13.15;;;0.00;99.90;;;;;;5098429;28;20032;-70
2022/12/11 10:09:12;;;;;;;36.72;14.50;;;0.00;99.90;;;;;;5096964;28;20038;-74
2022/12/11 10:12:02;;;;;;;42.55;15.85;;;0.00;99.90;;;;;;5099904;28;20020;-69
2022/12/11 10:15:06;;;;;;;35.15;14.20;;;0.00;99.90;;;;;;5099034;28;20024;-70
2022/12/11 10:17:35;;;;;;;40.58;14.65;;;0.10;99.90;;;;;;5099983;28;20016;-70
2022/12/11 10:20:35;;;;;;;36.58;15.07;;;0.00;99.90;;;;;;5099873;28;20036;-71
2022/12/11 10:23:03;;;;;;;23.50;10.30;;;0.10;99.90;;;;;;5096080;28;20043;-71
2022/12/11 10:25:34;;;;;;;35.08;15.07;;;0.10;99.90;;;;;;5098485;28;20043;-70
2022/12/11 10:28:13;;;;;;;38.50;14.30;;;0.10;99.90;;;;;;5100479;28;20027;-69
2022/12/11 10:31:09;;;;;;;35.38;15.23;;;0.10;99.90;;;;;;5100297;28;20059;-70
2022/12/11 10:33:35;;;;;;;38.03;13.85;;;0.10;99.90;;;;;;5100935;28;20099;-69
2022/12/11 10:36:01;;;;;;;38.30;13.98;;;0.10;99.90;;;;;;5100871;28;20028;-70
2022/12/11 10:38:41;;;;;;;36.95;14.48;;;0.10;99.90;;;;;;5099036;28;20036;-69
2022/12/11 10:41:19;;;;;;;34.70;14.80;;;0.10;99.90;;;;;;5100177;28;20024;-70
2022/12/11 10:43:48;;;;;;;38.33;13.93;;;0.10;99.90;;;;;;5100949;28;21015;-71
2022/12/11 10:46:26;;;;;;;40.13;14.88;;;0.10;99.90;;;;;;5103915;28;20506;-72
2022/12/11 10:48:57;;;;;;;37.00;14.32;;;0.10;99.90;;;;;;5104185;28;20035;-70
2022/12/11 10:51:32;;;;;;;34.40;14.48;;;0.10;99.90;;;;;;5103687;28;20520;-69
2022/12/11 10:54:26;;;;;;;34.58;15.20;;;0.10;99.90;;;;;;5102776;28;20047;-69
2022/12/11 10:56:52;;;;;;;37.72;14.93;;;0.20;99.90;;;;;;5093204;28;20039;-69
2022/12/11 10:59:29;;;;;;;43.15;15.48;;;0.20;99.90;;;;;;5102886;28;20039;-69
2022/12/11 11:01:56;;;;;;;40.30;14.63;;;0.20;99.90;;;;;;5103248;28;20073;-71
2022/12/11 11:04:30;;;;;;;33.28;13.93;;;0.20;99.90;;;;;;5098805;28;20207;-69
2022/12/11 11:07:11;;;;;;;41.00;16.02;;;0.20;99.90;;;;;;5101886;28;20093;-69
2022/12/11 11:09:38;;;;;;;36.95;15.38;;;0.20;99.90;;;;;;5103340;28;20058;-69
2022/12/11 11:12:16;;;;;;;37.80;15.65;;;0.30;99.90;;;;;;5102177;28;20019;-69
2022/12/11 11:14:41;;;;;;;40.60;16.15;;;0.20;99.90;;;;;;5095801;28;20082;-69
2022/12/11 11:17:14;;;;;;;39.55;15.93;;;0.30;99.90;;;;;;5091267;28;20032;-69
2022/12/11 11:19:40;;;;;;;39.70;15.73;;;0.30;99.90;;;;;;5093283;28;20379;-69
2022/12/11 11:22:07;;;;;;;43.33;16.27;;;0.30;99.90;;;;;;5102856;28;20039;-69
2022/12/11 11:24:59;;;;;;;46.60;17.25;;;0.30;99.90;;;;;;5102043;28;20128;-70
2022/12/11 11:27:33;;;;;;;52.85;18.13;;;0.40;99.90;;;;;;5097675;28;20048;-69
2022/12/11 11:30:15;;;;;;;49.22;18.90;;;0.40;99.90;;;;;;5099266;28;20024;-69
2022/12/11 11:32:42;;;;;;;51.95;21.20;;;0.40;99.90;;;;;;5103328;28;20084;-71
2022/12/11 11:35:11;;;;;;;60.58;19.48;;;0.50;99.90;;;;;;5103238;28;20016;-69
2022/12/11 11:37:38;;;;;;;52.17;18.65;;;0.60;99.90;;;;;;5099952;28;20032;-70
2022/12/11 11:40:22;;;;;;;52.08;18.85;;;0.60;99.90;;;;;;5095462;28;20036;-69
2022/12/11 11:42:56;;;;;;;;;;;0.60;99.90;;;;;;5101347;28;20123;-68
2022/12/11 11:45:28;;;;;;;46.13;18.17;;;0.60;99.90;;;;;;5103335;28;19923;-69
2022/12/11 11:48:32;;;;;;;43.53;15.75;;;0.60;99.90;;;;;;5102266;28;20266;-68
2022/12/11 11:51:04;;;;;;;53.97;18.65;;;0.60;99.90;;;;;;5080620;28;20040;-69
2022/12/11 11:53:36;;;;;;;66.03;24.13;;;0.50;99.90;;;;;;5103161;28;20035;-67
2022/12/11 11:56:21;;;;;;;57.17;20.52;;;0.50;99.90;;;;;;5102775;28;20024;-68
2022/12/11 11:58:55;;;;;;;51.53;20.52;;;0.50;99.90;;;;;;5103024;28;20012;-68
2022/12/11 12:01:21;;;;;;;47.60;18.13;;;0.60;99.90;;;;;;5100865;28;20053;-69
2022/12/11 12:03:48;;;;;;;54.72;19.33;;;0.60;99.90;;;;;;5101766;28;20056;-69
2022/12/11 12:06:16;;;;;;;60.65;21.65;;;0.50;99.90;;;;;;5102115;28;20044;-68
2022/12/11 12:09:00;;;;;;;47.88;18.63;;;0.50;99.90;;;;;;5101755;28;20033;-70
2022/12/11 12:11:51;;;;;;;53.40;20.13;;;0.50;99.90;;;;;;5099220;28;20044;-69
2022/12/11 12:14:38;;;;;;;49.05;19.10;;;0.50;99.90;;;;;;5102832;28;20040;-68
2022/12/11 12:17:30;;;;;;;39.92;16.55;;;0.50;99.90;;;;;;5102573;28;20046;-68
2022/12/11 12:20:14;;;;;;;47.95;17.95;;;0.50;99.90;;;;;;5100898;28;20031;-69
2022/12/11 12:23:07;;;;;;;37.33;13.55;;;0.50;99.90;;;;;;5101526;28;20028;-70
2022/12/11 12:25:43;;;;;;;46.88;17.25;;;0.50;99.90;;;;;;5101854;28;20036;-68
2022/12/11 12:28:43;;;;;;;45.63;18.85;;;0.60;99.90;;;;;;5102245;28;20054;-68
2022/12/11 12:31:33;;;;;;;49.42;19.30;;;0.60;99.90;;;;;;5102173;28;20031;-69
2022/12/11 12:34:18;;;;;;;45.67;18.00;;;0.60;99.90;;;;;;5102398;28;20032;-70
2022/12/11 12:37:02;;;;;;;52.03;18.17;;;0.60;99.90;;;;;;5102287;28;20333;-70
2022/12/11 12:40:10;;;;;;;45.90;18.23;;;0.60;99.90;;;;;;5101117;28;20118;-69
2022/12/11 12:43:27;;;;;;;49.95;18.20;;;0.60;99.90;;;;;;5101580;28;20105;-69
2022/12/11 12:46:14;;;;;;;49.63;19.75;;;0.60;99.90;;;;;;5106667;28;20063;-69
2022/12/11 12:48:41;;;;;;;54.25;20.13;;;0.60;99.90;;;;;;5101219;28;20091;-70
2022/12/11 12:51:09;;;;;;;51.92;20.02;;;0.60;99.90;;;;;;5099537;28;20028;-68
2022/12/11 12:53:36;;;;;;;49.38;20.05;;;0.60;99.90;;;;;;5098600;28;20035;-69
2022/12/11 12:56:03;;;;;;;62.15;20.58;;;0.60;99.90;;;;;;5101356;28;20039;-70
2022/12/11 12:58:34;;;;;;;45.38;17.15;;;0.70;99.90;;;;;;5102097;28;20031;-69
2022/12/11 13:01:30;;;;;;;51.13;19.70;;;0.70;99.90;;;;;;5101027;28;20028;-69